Time;durP1;ratioP1;P1;durP2;ratioP2;P2;SDS_P1;SDS_P2;PMS_P1;PMS_P2;Temp;Humidity;BMP_temperature;BMP_pressure;BME280_temperature;BME280_humidity;BME280_pressure;Samples;Min_cycle;Max_cycle;Signal;HPM_P1;HPM_P2
2022/06/11 00:00:09;;;;;;;21.52;14.18;;;;;;;17.93;76.78;102068.19;5029028;28;20025;-66
2022/06/11 00:02:35;;;;;;;23.00;13.32;;;;;;;17.90;76.58;102069.03;5029213;28;20076;-66
2022/06/11 00:05:00;;;;;;;22.55;13.50;;;;;;;17.83;76.79;102069.78;5029142;28;20025;-66
2022/06/11 00:07:26;;;;;;;21.02;12.85;;;;;;;17.83;76.69;102068.88;5026461;28;20519;-66
2022/06/11 00:09:52;;;;;;;20.85;13.18;;;;;;;17.86;76.59;102067.19;5029327;28;20643;-66
2022/06/11 00:12:18;;;;;;;23.83;12.93;;;;;;;17.84;76.23;102073.31;5028189;28;20029;-66
2022/06/11 00:14:44;;;;;;;25.77;12.93;;;;;;;17.79;76.54;102073.25;5028914;28;20029;-66
2022/06/11 00:17:12;;;;;;;21.15;13.18;;;;;;;17.75;76.66;102071.44;5030223;28;20029;-66
2022/06/11 00:19:38;;;;;;;23.60;13.00;;;;;;;17.73;76.54;102058.22;5031785;28;20033;-66
2022/06/11 00:22:04;;;;;;;23.60;12.82;;;;;;;17.71;76.28;102065.25;5033403;28;20040;-66
2022/06/11 00:24:29;;;;;;;25.02;12.65;;;;;;;17.70;76.39;102068.75;5033388;28;20018;-66
2022/06/11 00:26:57;;;;;;;19.83;11.50;;;;;;;17.70;76.38;102063.47;5015792;28;20037;-66
2022/06/11 00:29:25;;;;;;;20.83;11.40;;;;;;;17.71;76.33;102066.97;5033349;28;20396;-66
2022/06/11 00:31:51;;;;;;;18.25;11.13;;;;;;;17.74;76.73;102067.00;5033316;28;20171;-66
2022/06/11 00:34:17;;;;;;;18.00;11.07;;;;;;;17.75;76.18;102068.78;5033285;28;20022;-66
2022/06/11 00:36:44;;;;;;;19.42;11.13;;;;;;;17.77;76.16;102058.25;5032491;28;20021;-66
2022/06/11 00:39:12;;;;;;;18.52;11.30;;;;;;;17.75;75.81;102067.91;5033161;28;20033;-66
2022/06/11 00:41:42;;;;;;;17.03;10.60;;;;;;;17.72;75.83;102068.75;5033185;28;20025;-66
2022/06/11 00:44:07;;;;;;;;;;;;;;;17.84;75.08;102061.03;5033667;28;20272;-66
2022/06/11 00:46:36;;;;;;;22.02;11.68;;;;;;;17.68;75.89;102061.66;5032884;28;20348;-66
2022/06/11 00:49:04;;;;;;;21.25;11.57;;;;;;;17.63;76.09;102058.97;5033336;28;20465;-66
2022/06/11 00:51:31;;;;;;;18.38;11.05;;;;;;;17.62;76.27;102064.22;5032925;28;20507;-66
2022/06/11 00:54:03;;;;;;;20.90;11.40;;;;;;;17.53;76.33;102060.59;5030587;28;20029;-66
2022/06/11 00:56:37;;;;;;;19.33;11.80;;;;;;;17.51;76.43;102057.06;5027531;28;20030;-72
2022/06/11 00:59:06;;;;;;;16.27;11.13;;;;;;;17.44;76.88;102057.81;5032192;28;20060;-73
2022/06/11 01:01:32;;;;;;;19.13;11.60;;;;;;;17.44;76.62;102057.81;5031879;28;20082;-73
2022/06/11 01:04:00;;;;;;;22.75;12.55;;;;;;;17.36;76.47;102062.09;5031126;28;20112;-72
2022/06/11 01:06:51;;;;;;;25.75;12.65;;;;;;;17.40;76.63;102060.41;5032135;28;20029;-73
2022/06/11 01:09:40;;;;;;;17.25;10.98;;;;;;;17.31;76.96;102054.13;5031218;28;20018;-72
2022/06/11 01:12:25;;;;;;;18.23;11.82;;;;;;;17.34;77.31;102061.19;5019345;28;20485;-73
2022/06/11 01:14:57;;;;;;;21.42;11.60;;;;;;;17.24;77.30;102057.53;5014150;28;20112;-73
2022/06/11 01:17:43;;;;;;;19.27;10.70;;;;;;;17.24;77.78;102052.25;5031919;28;20072;-72
2022/06/11 01:20:46;;;;;;;21.13;11.65;;;;;;;17.26;77.73;102052.28;5029350;28;20447;-73
2022/06/11 01:23:30;;;;;;;21.50;11.80;;;;;;;17.23;78.19;102053.09;5031542;28;20033;-73
2022/06/11 01:26:18;;;;;;;21.02;12.20;;;;;;;17.23;77.78;102055.75;5031672;28;20025;-73
2022/06/11 01:29:09;;;;;;;22.93;12.80;;;;;;;17.24;77.61;102048.75;5019957;28;20052;-73
2022/06/11 01:31:52;;;;;;;22.52;11.73;;;;;;;17.20;77.81;102048.66;5029361;28;20397;-73
2022/06/11 01:34:38;;;;;;;21.27;12.48;;;;;;;17.21;77.78;102049.56;5031631;28;20029;-72
2022/06/11 01:37:16;;;;;;;22.33;12.35;;;;;;;17.16;78.54;102048.59;5030748;28;20021;-73
2022/06/11 01:39:48;;;;;;;24.40;13.03;;;;;;;17.17;78.63;102045.13;5032257;28;20021;-73
2022/06/11 01:42:21;;;;;;;25.73;12.95;;;;;;;17.12;78.82;102046.78;5031478;28;20330;-73
2022/06/11 01:45:04;;;;;;;22.73;12.95;;;;;;;17.13;78.50;102043.28;5031000;28;20041;-73
2022/06/11 01:47:31;;;;;;;25.23;13.57;;;;;;;17.07;78.46;102049.34;5025505;28;20047;-73
2022/06/11 01:49:57;;;;;;;24.45;12.93;;;;;;;17.03;78.48;102050.16;5017785;28;20092;-72
2022/06/11 01:52:53;;;;;;;21.50;12.80;;;;;;;17.05;78.32;102045.81;5025025;28;20037;-73
2022/06/11 01:55:31;;;;;;;27.30;13.50;;;;;;;17.02;78.56;102045.78;5030652;28;20025;-73
2022/06/11 01:58:21;;;;;;;21.77;12.85;;;;;;;17.01;78.56;102041.34;5030617;28;20037;-73
2022/06/11 02:01:09;;;;;;;20.83;12.50;;;;;;;16.98;78.94;102044.81;5031027;28;20025;-73
2022/06/11 02:04:00;;;;;;;21.43;13.80;;;;;;;17.00;77.93;102045.75;5031618;28;20025;-72
2022/06/11 02:06:35;;;;;;;20.60;12.70;;;;;;;16.96;78.57;102043.00;5020914;28;20336;-73
2022/06/11 02:09:08;;;;;;;19.70;12.73;;;;;;;16.91;78.95;102049.97;5030049;28;20045;-73
2022/06/11 02:11:37;;;;;;;21.02;12.77;;;;;;;16.89;78.15;102046.41;5013183;28;20413;-73
2022/06/11 02:14:14;;;;;;;22.08;12.95;;;;;;;16.88;78.43;102047.28;5015409;28;20073;-73
2022/06/11 02:16:50;;;;;;;23.85;12.60;;;;;;;16.81;78.93;102044.50;4994275;28;20116;-72
2022/06/11 02:19:20;;;;;;;22.10;12.70;;;;;;;16.78;78.71;102047.09;5009437;28;20026;-72
2022/06/11 02:21:52;;;;;;;19.20;12.55;;;;;;;16.76;78.81;102054.06;5011938;28;20394;-72
2022/06/11 02:24:26;;;;;;;19.38;12.38;;;;;;;16.73;78.72;102055.75;5009784;28;20029;-73
2022/06/11 02:26:56;;;;;;;20.23;11.82;;;;;;;16.72;78.44;102054.88;5011371;28;20022;-72
2022/06/11 02:29:23;;;;;;;19.75;12.57;;;;;;;16.66;77.88;102053.03;5011392;28;20030;-72
2022/06/11 02:31:56;;;;;;;21.70;12.80;;;;;;;16.61;78.24;102053.78;5011603;28;20389;-72
2022/06/11 02:34:24;;;;;;;20.30;12.55;;;;;;;16.56;77.78;102066.00;5010344;28;20060;-72
2022/06/11 02:37:04;;;;;;;24.30;13.10;;;;;;;16.57;78.36;102062.47;4993544;28;20649;-72
2022/06/11 02:39:33;;;;;;;17.23;11.43;;;;;;;16.49;78.61;102067.63;5011201;28;20056;-72
2022/06/11 02:41:59;;;;;;;17.13;11.25;;;;;;;16.50;79.24;102064.13;5010801;28;20053;-72
2022/06/11 02:44:25;;;;;;;22.20;12.70;;;;;;;16.47;78.65;102058.81;5011095;28;20436;-73
2022/06/11 02:46:51;;;;;;;19.75;11.35;;;;;;;16.49;79.14;102068.50;5013388;28;20009;-72
2022/06/11 02:49:26;;;;;;;22.92;11.68;;;;;;;16.51;79.52;102071.16;5010630;28;20030;-73
2022/06/11 02:51:54;;;;;;;21.83;11.25;;;;;;;16.46;79.44;102071.06;4999345;28;20045;-72
2022/06/11 02:54:22;;;;;;;19.75;11.20;;;;;;;16.44;79.67;102074.56;5010954;28;20034;-72
2022/06/11 02:56:50;;;;;;;23.27;11.75;;;;;;;16.44;79.66;102072.78;5020858;28;20044;-72
2022/06/11 02:59:15;;;;;;;19.35;10.80;;;;;;;16.45;78.89;102073.66;5010015;28;20072;-72
2022/06/11 03:01:41;;;;;;;21.75;12.32;;;;;;;16.42;78.98;102078.88;5017650;28;20029;-72
2022/06/11 03:04:07;;;;;;;20.00;10.73;;;;;;;16.42;79.39;102077.13;5022692;28;20083;-72
2022/06/11 03:06:33;;;;;;;18.88;10.57;;;;;;;16.40;79.40;102085.88;5009213;28;20406;-72
2022/06/11 03:08:59;;;;;;;18.77;10.93;;;;;;;16.35;78.73;102075.22;5010176;28;20034;-73
2022/06/11 03:11:27;;;;;;;17.60;10.18;;;;;;;16.34;78.60;102081.38;5017401;28;20109;-72
2022/06/11 03:13:52;;;;;;;20.25;10.77;;;;;;;16.30;79.20;102084.78;5024817;28;20045;-72
2022/06/11 03:16:18;;;;;;;18.02;11.00;;;;;;;16.31;79.10;102086.56;5029819;28;20028;-72
2022/06/11 03:18:43;;;;;;;17.38;10.20;;;;;;;16.30;79.51;102088.28;5030711;28;20055;-72
2022/06/11 03:21:09;;;;;;;19.52;10.43;;;;;;;16.31;79.76;102087.44;5029431;28;20435;-73
2022/06/11 03:23:35;;;;;;;20.00;10.77;;;;;;;16.31;80.35;102097.09;5029471;28;20029;-72
2022/06/11 03:26:01;;;;;;;17.30;10.45;;;;;;;16.28;80.34;102099.63;5010929;28;20029;-72
2022/06/11 03:28:28;;;;;;;19.67;10.40;;;;;;;16.33;80.51;102101.50;5029146;28;20498;-72
2022/06/11 03:30:54;;;;;;;19.33;10.88;;;;;;;16.33;80.36;102095.38;5029575;28;20552;-72
2022/06/11 03:33:20;;;;;;;16.65;11.35;;;;;;;16.34;80.34;102098.03;5028731;28;20036;-73
2022/06/11 03:35:49;;;;;;;15.35;10.38;;;;;;;16.35;80.60;102104.16;5029538;28;20029;-72
2022/06/11 03:38:16;;;;;;;18.67;10.47;;;;;;;16.37;81.04;102104.22;5026765;28;20031;-72
2022/06/11 03:40:42;;;;;;;18.90;10.05;;;;;;;16.38;80.91;102109.50;5029373;28;20292;-72
2022/06/11 03:43:08;;;;;;;17.27;10.40;;;;;;;16.38;80.81;102109.50;5028522;28;20345;-72
2022/06/11 03:45:34;;;;;;;19.27;10.10;;;;;;;16.39;80.96;102116.53;5029482;28;20251;-72
2022/06/11 03:48:00;;;;;;;17.85;10.07;;;;;;;16.39;80.67;102120.91;5029458;28;20469;-73
2022/06/11 03:50:30;;;;;;;21.05;10.02;;;;;;;16.40;80.86;102114.81;5029480;28;20087;-72
2022/06/11 03:52:55;;;;;;;17.45;9.88;;;;;;;16.41;80.55;102117.47;5031207;28;20033;-72
2022/06/11 03:55:23;;;;;;;17.02;9.50;;;;;;;16.41;80.51;102122.72;5015398;28;20041;-72
2022/06/11 03:57:48;;;;;;;16.73;9.38;;;;;;;16.45;80.48;102121.03;5032321;28;20057;-72
2022/06/11 04:00:16;;;;;;;19.17;10.65;;;;;;;16.46;80.67;102128.06;5014107;28;20049;-72
2022/06/11 04:02:42;;;;;;;17.60;9.60;;;;;;;16.46;80.25;102131.59;5033224;28;20021;-72
2022/06/11 04:05:08;;;;;;;18.75;10.27;;;;;;;16.47;80.23;102132.50;5032890;28;20030;-73
2022/06/11 04:07:34;;;;;;;17.08;9.25;;;;;;;16.50;80.70;102136.06;5033151;28;20041;-72
2022/06/11 04:10:00;;;;;;;19.50;9.55;;;;;;;16.48;80.31;102134.25;5032272;28;20025;-72
2022/06/11 04:12:25;;;;;;;17.73;9.07;;;;;;;16.50;80.50;102132.53;5032762;28;20401;-72
2022/06/11 04:14:52;;;;;;;16.58;8.70;;;;;;;16.54;80.55;102147.53;5033034;28;20052;-72
2022/06/11 04:17:25;;;;;;;15.50;9.40;;;;;;;16.54;80.37;102146.63;5033070;28;20060;-72
2022/06/11 04:19:51;;;;;;;13.82;8.30;;;;;;;16.56;79.98;102139.69;5032773;28;20075;-72
2022/06/11 04:22:18;;;;;;;15.50;8.85;;;;;;;16.57;79.82;102144.06;5033516;28;20518;-72
2022/06/11 04:24:43;;;;;;;15.90;8.68;;;;;;;16.58;80.06;102148.47;5033526;28;20535;-72
2022/06/11 04:27:11;;;;;;;17.30;9.35;;;;;;;16.58;80.02;102148.47;5033531;28;20037;-73
2022/06/11 04:29:40;;;;;;;15.40;9.15;;;;;;;16.58;80.37;102154.59;5033580;28;20951;-72
2022/06/11 04:32:08;;;;;;;16.00;9.20;;;;;;;16.60;79.99;102152.03;5033407;28;20018;-73
2022/06/11 04:34:34;;;;;;;21.38;9.07;;;;;;;16.63;79.66;102154.72;5032853;28;20212;-73
2022/06/11 04:37:00;;;;;;;15.30;9.15;;;;;;;16.61;79.79;102159.97;5033281;28;20455;-72
2022/06/11 04:39:30;;;;;;;14.93;8.90;;;;;;;16.64;79.59;102153.84;5015429;28;20022;-73
2022/06/11 04:41:56;;;;;;;17.70;8.82;;;;;;;16.61;79.27;102154.69;5015504;28;20088;-72
2022/06/11 04:44:22;;;;;;;15.45;8.52;;;;;;;16.63;78.55;102160.00;5033272;28;20025;-73
2022/06/11 04:46:48;;;;;;;18.10;8.57;;;;;;;16.61;78.78;102152.06;5033334;28;20518;-73
2022/06/11 04:49:14;;;;;;;17.83;8.75;;;;;;;16.63;79.36;102162.63;5032776;28;20037;-73
2022/06/11 04:51:40;;;;;;;19.02;8.32;;;;;;;16.65;78.29;102166.16;5014710;28;20037;-72
2022/06/11 04:54:06;;;;;;;15.05;7.60;;;;;;;16.64;77.70;102164.38;5031632;28;20036;-73
2022/06/11 04:56:31;;;;;;;19.17;8.38;;;;;;;16.64;77.84;102162.66;5032116;28;20025;-73
2022/06/11 04:58:58;;;;;;;16.70;7.93;;;;;;;16.64;77.43;102167.91;5014133;28;20443;-72
2022/06/11 05:01:23;;;;;;;17.70;7.40;;;;;;;16.64;77.53;102159.13;5031874;28;20034;-72
2022/06/11 05:03:49;;;;;;;17.58;7.93;;;;;;;16.63;76.65;102163.50;5029317;28;20033;-73
2022/06/11 05:06:18;;;;;;;21.42;8.35;;;;;;;16.66;77.11;102157.41;5031726;28;20113;-72
2022/06/11 05:08:44;;;;;;;19.25;8.10;;;;;;;16.66;75.83;102167.94;5032013;28;20021;-73
2022/06/11 05:11:09;;;;;;;17.90;7.82;;;;;;;16.64;75.67;102165.28;5031605;28;20082;-72
2022/06/11 05:13:34;;;;;;;17.02;7.07;;;;;;;16.66;75.68;102163.56;5032417;28;20143;-72
2022/06/11 05:16:00;;;;;;;19.27;7.10;;;;;;;16.68;75.10;102171.47;5031224;28;20030;-73
2022/06/11 05:18:28;;;;;;;17.45;7.15;;;;;;;16.65;74.94;102174.06;5023703;28;20366;-73
2022/06/11 05:20:54;;;;;;;15.10;7.00;;;;;;;16.67;76.45;102175.00;5014265;28;20115;-72
2022/06/11 05:23:19;;;;;;;16.00;7.10;;;;;;;16.67;76.68;102169.72;5032471;28;20469;-73
2022/06/11 05:25:46;;;;;;;17.55;7.57;;;;;;;16.67;76.01;102170.59;5030526;28;20049;-73
2022/06/11 05:28:23;;;;;;;18.27;7.82;;;;;;;16.68;76.54;102168.84;5030568;28;20025;-72
2022/06/11 05:30:49;;;;;;;17.70;7.15;;;;;;;16.67;75.67;102169.72;5031602;28;20037;-73
2022/06/11 05:33:16;;;;;;;19.08;7.25;;;;;;;16.66;74.84;102168.81;5031749;28;20025;-73
2022/06/11 05:35:42;;;;;;;23.50;7.90;;;;;;;16.68;74.78;102172.38;5032260;28;20047;-73
2022/06/11 05:38:13;;;;;;;19.48;7.70;;;;;;;16.69;75.02;102173.25;5023961;28;20441;-73
2022/06/11 05:40:41;;;;;;;18.25;7.00;;;;;;;16.69;74.12;102173.25;5032080;28;20033;-73
2022/06/11 05:43:07;;;;;;;21.02;7.22;;;;;;;16.72;73.38;102181.22;5032119;28;20029;-72
2022/06/11 05:45:51;;;;;;;16.88;6.68;;;;;;;16.77;74.49;102181.28;5031169;28;20037;-71
2022/06/11 05:48:20;;;;;;;22.58;7.10;;;;;;;16.78;73.09;102183.97;5029818;28;20040;-72
2022/06/11 05:50:50;;;;;;;19.70;6.47;;;;;;;16.83;72.66;102184.06;5031755;28;20389;-72
2022/06/11 05:53:18;;;;;;;20.77;6.57;;;;;;;16.84;72.26;102186.72;5030949;28;20036;-73
2022/06/11 05:55:46;;;;;;;22.02;6.80;;;;;;;16.85;71.74;102175.31;5030927;28;20435;-73
2022/06/11 05:58:15;;;;;;;19.35;6.47;;;;;;;16.87;72.59;102183.25;5029691;28;20025;-73
2022/06/11 06:00:42;;;;;;;18.65;6.72;;;;;;;16.93;72.17;102187.78;5030876;28;20396;-73
2022/06/11 06:03:07;;;;;;;19.73;5.70;;;;;;;16.99;71.31;102174.75;5030767;28;20025;-73
2022/06/11 06:05:33;;;;;;;20.20;6.15;;;;;;;16.98;69.77;102180.88;5013598;28;20400;-73
2022/06/11 06:07:59;;;;;;;16.83;5.18;;;;;;;17.03;70.27;102185.34;5012501;28;20060;-73
2022/06/11 06:10:24;;;;;;;20.42;6.15;;;;;;;17.07;70.52;102183.66;5030503;28;20037;-72
2022/06/11 06:12:50;;;;;;;22.48;6.45;;;;;;;17.10;71.04;102185.47;5030216;28;20520;-73
2022/06/11 06:15:20;;;;;;;21.63;7.47;;;;;;;17.10;69.93;102186.34;5030119;28;20442;-74
2022/06/11 06:17:45;;;;;;;;;;;;;;;17.20;71.03;102184.75;5030649;28;20400;-73
2022/06/11 06:20:14;;;;;;;19.13;5.88;;;;;;;17.17;69.97;102189.97;5026174;28;19913;-72
2022/06/11 06:22:41;;;;;;;23.35;7.15;;;;;;;17.15;69.21;102195.22;5012103;28;20053;-73
2022/06/11 06:25:07;;;;;;;21.38;6.63;;;;;;;17.16;70.19;102197.00;5031175;28;20104;-72
2022/06/11 06:27:33;;;;;;;20.90;6.70;;;;;;;17.18;69.26;102199.66;5031104;28;20095;-73
2022/06/11 06:29:58;;;;;;;25.27;6.90;;;;;;;17.23;69.29;102202.38;5031128;28;20029;-73
2022/06/11 06:32:24;;;;;;;20.48;6.78;;;;;;;17.26;70.42;102205.94;5030420;28;20047;-73
2022/06/11 06:34:49;;;;;;;25.27;6.95;;;;;;;17.28;69.47;102212.13;5031097;28;20021;-73
2022/06/11 06:37:14;;;;;;;20.63;6.05;;;;;;;17.35;70.43;102213.13;5030877;28;20017;-73
2022/06/11 06:39:40;;;;;;;24.55;6.88;;;;;;;17.37;69.97;102216.69;5030886;28;20029;-73
2022/06/11 06:42:06;;;;;;;27.27;6.43;;;;;;;17.41;69.12;102223.78;5031045;28;20032;-73
2022/06/11 06:44:32;;;;;;;28.98;6.75;;;;;;;17.44;70.33;102210.66;5029352;28;20025;-73
2022/06/11 06:46:58;;;;;;;21.17;6.30;;;;;;;17.48;69.25;102217.75;5011241;28;20563;-73
2022/06/11 06:49:24;;;;;;;23.10;8.55;;;;;;;17.52;69.49;102208.13;5023603;28;20033;-73
2022/06/11 06:51:49;;;;;;;25.05;7.45;;;;;;;17.55;68.69;102217.00;5029225;28;20041;-73
2022/06/11 06:54:14;;;;;;;33.10;6.55;;;;;;;17.61;69.80;102215.31;5012302;28;20071;-73
2022/06/11 06:56:40;;;;;;;26.38;6.78;;;;;;;17.65;69.93;102206.59;5029671;28;20091;-73
2022/06/11 06:59:06;;;;;;;29.67;6.25;;;;;;;17.67;70.41;102220.69;5030185;28;20088;-73
2022/06/11 07:01:32;;;;;;;24.67;5.95;;;;;;;17.68;69.84;102217.19;5029615;28;20404;-73
2022/06/11 07:03:58;;;;;;;26.55;6.88;;;;;;;17.65;71.87;102220.66;5029326;28;20029;-72
2022/06/11 07:06:24;;;;;;;24.70;6.82;;;;;;;17.67;71.64;102218.03;5030574;28;20072;-73
2022/06/11 07:08:52;;;;;;;23.98;6.75;;;;;;;17.66;69.49;102217.16;5031518;28;20571;-73
2022/06/11 07:11:18;;;;;;;27.23;6.80;;;;;;;17.67;70.94;102216.31;5028590;28;20033;-73
2022/06/11 07:13:43;;;;;;;27.73;6.97;;;;;;;17.75;72.30;102213.78;5023387;28;20045;-72
2022/06/11 07:16:09;;;;;;;29.10;6.63;;;;;;;17.87;72.14;102202.53;5010681;28;20025;-73
2022/06/11 07:18:44;;;;;;;26.30;6.45;;;;;;;17.94;71.23;102193.00;5009266;28;20128;-73
2022/06/11 07:21:20;;;;;;;27.17;6.28;;;;;;;17.97;69.81;102193.06;5012693;28;20037;-73
2022/06/11 07:23:52;;;;;;;26.52;7.22;;;;;;;17.94;68.69;102195.66;5015626;28;20109;-73
2022/06/11 07:26:22;;;;;;;28.60;6.82;;;;;;;17.99;70.45;102194.88;5009720;28;20088;-73
2022/06/11 07:28:53;;;;;;;24.58;6.10;;;;;;;18.11;72.57;102206.47;5020937;28;20036;-73
2022/06/11 07:31:19;;;;;;;24.67;6.07;;;;;;;18.20;72.61;102194.25;5023426;28;20033;-73
2022/06/11 07:33:44;;;;;;;25.02;6.82;;;;;;;18.27;72.25;102203.16;5008912;28;20021;-73
2022/06/11 07:36:12;;;;;;;25.88;5.88;;;;;;;18.34;72.41;102212.94;5009781;28;20034;-73
2022/06/11 07:38:38;;;;;;;28.70;6.28;;;;;;;18.37;71.54;102220.00;5009479;28;20026;-73
2022/06/11 07:41:03;;;;;;;31.15;6.90;;;;;;;18.38;69.27;102217.38;5016471;28;20036;-72
2022/06/11 07:43:29;;;;;;;31.67;6.70;;;;;;;18.35;67.72;102221.72;5009076;28;20037;-73
2022/06/11 07:45:54;;;;;;;34.65;7.50;;;;;;;18.34;68.53;102219.97;5010211;28;20026;-73
2022/06/11 07:48:20;;;;;;;32.22;7.80;;;;;;;18.34;69.65;102220.84;5009700;28;20428;-73
2022/06/11 07:50:49;;;;;;;31.90;7.32;;;;;;;18.38;70.06;102227.06;5008321;28;20037;-73
2022/06/11 07:53:14;;;;;;;;;;;;;;;18.45;70.36;102222.75;5007369;28;20143;-72
2022/06/11 07:55:44;;;;;;;28.98;7.38;;;;;;;18.40;68.99;102215.63;5008178;28;20392;-73
2022/06/11 07:58:11;;;;;;;28.30;7.50;;;;;;;18.41;68.65;102211.25;5009901;28;20030;-73
2022/06/11 08:00:40;;;;;;;30.00;7.05;;;;;;;18.45;69.49;102207.81;5009396;28;20116;-72
2022/06/11 08:03:06;;;;;;;24.35;6.75;;;;;;;18.45;67.38;102207.81;5008698;28;20041;-73
2022/06/11 08:05:32;;;;;;;39.83;7.75;;;;;;;18.45;67.68;102207.81;5008900;28;20030;-72
2022/06/11 08:07:57;;;;;;;35.58;7.47;;;;;;;18.43;67.72;102220.06;5010372;28;20089;-73
2022/06/11 08:10:25;;;;;;;33.53;7.68;;;;;;;18.42;68.87;102224.47;5008633;28;20046;-73
2022/06/11 08:12:50;;;;;;;34.13;7.15;;;;;;;18.43;68.40;102225.34;5014723;28;20042;-73
2022/06/11 08:15:16;;;;;;;34.58;8.07;;;;;;;18.50;68.17;102229.84;5028512;28;20495;-72
2022/06/11 08:17:41;;;;;;;29.70;7.57;;;;;;;18.54;67.57;102234.31;5028696;28;20404;-80
2022/06/11 08:20:08;;;;;;;28.40;7.25;;;;;;;18.60;69.31;102233.50;5029643;28;20104;-72
2022/06/11 08:22:33;;;;;;;30.95;6.70;;;;;;;18.58;65.61;102240.50;5029720;28;20025;-72
2022/06/11 08:24:59;;;;;;;24.33;6.65;;;;;;;18.60;66.45;102230.84;5028945;28;20036;-72
2022/06/11 08:27:25;;;;;;;30.80;6.65;;;;;;;18.65;66.90;102236.19;5029888;28;20512;-78
2022/06/11 08:29:51;;;;;;;27.23;7.00;;;;;;;18.66;66.20;102232.69;5034450;28;20515;-72
2022/06/11 08:32:16;;;;;;;35.20;7.40;;;;;;;18.66;67.01;102235.34;5029609;28;20071;-72
2022/06/11 08:34:46;;;;;;;30.02;7.18;;;;;;;18.67;68.04;102245.91;5032210;28;20104;-72
2022/06/11 08:37:12;;;;;;;35.88;8.52;;;;;;;18.68;67.23;102238.88;5033991;28;20029;-72
2022/06/11 08:39:37;;;;;;;26.77;6.85;;;;;;;18.72;69.03;102235.41;5038451;28;20515;-72
2022/06/11 08:42:04;;;;;;;50.20;11.48;;;;;;;18.83;72.39;102249.63;5033210;28;20108;-75
2022/06/11 08:44:35;;;;;;;30.90;7.50;;;;;;;18.89;69.11;102236.50;5033336;28;20396;-80
2022/06/11 08:47:06;;;;;;;28.75;6.97;;;;;;;18.99;67.02;102242.78;5034845;28;20495;-78
2022/06/11 08:49:46;;;;;;;24.05;5.50;;;;;;;19.03;64.67;102236.69;5037001;28;20033;-78
2022/06/11 08:52:20;;;;;;;25.80;6.47;;;;;;;19.08;65.55;102245.53;5036400;28;20033;-78
2022/06/11 08:54:47;;;;;;;30.27;6.60;;;;;;;19.12;63.17;102241.19;5033901;28;20028;-78
2022/06/11 08:57:34;;;;;;;23.48;6.47;;;;;;;19.17;65.39;102241.22;5032857;28;20037;-78
2022/06/11 09:00:09;;;;;;;32.13;7.43;;;;;;;19.20;65.15;102242.13;5031799;28;20033;-78
2022/06/11 09:02:43;;;;;;;28.23;6.45;;;;;;;19.25;65.35;102240.44;5027142;28;20030;-78
2022/06/11 09:05:36;;;;;;;28.00;6.47;;;;;;;19.31;65.48;102246.66;5030369;28;20091;-79
2022/06/11 09:08:27;;;;;;;29.20;7.55;;;;;;;19.35;67.08;102238.75;5017201;28;20026;-78
2022/06/11 09:11:11;;;;;;;33.28;7.53;;;;;;;19.36;64.88;102237.00;5028470;28;20025;-78
2022/06/11 09:14:19;;;;;;;33.22;7.40;;;;;;;19.34;65.58;102239.63;5023716;28;20132;-79
2022/06/11 09:17:14;;;;;;;29.30;6.68;;;;;;;19.38;67.64;102241.44;5031544;28;20467;-78
2022/06/11 09:20:07;;;;;;;33.50;6.85;;;;;;;19.37;66.03;102239.66;5031233;28;20039;-78
2022/06/11 09:23:21;;;;;;;31.25;6.68;;;;;;;19.38;66.62;102235.25;5034980;28;20112;-78
2022/06/11 09:26:03;;;;;;;34.45;6.95;;;;;;;19.36;64.72;102237.00;5005604;28;20493;-79
2022/06/11 09:28:40;;;;;;;32.53;7.32;;;;;;;19.34;65.00;102239.63;5026455;28;20433;-78
2022/06/11 09:31:05;;;;;;;35.78;7.45;;;;;;;19.34;63.53;102241.41;5025087;28;20476;-78
2022/06/11 09:33:37;;;;;;;32.73;7.27;;;;;;;19.36;64.64;102244.94;5011023;28;20041;-80
2022/06/11 09:36:06;;;;;;;32.45;6.75;;;;;;;19.36;64.10;102245.81;5035283;28;20327;-77
2022/06/11 09:38:56;;;;;;;37.97;8.18;;;;;;;19.38;64.64;102240.53;5031041;28;20108;-78
2022/06/11 09:41:36;;;;;;;30.63;7.18;;;;;;;19.38;65.57;102246.72;5032754;28;20034;-78
2022/06/11 09:44:22;;;;;;;33.70;9.07;;;;;;;19.37;63.52;102246.72;5030152;28;20389;-79
2022/06/11 09:47:10;;;;;;;33.13;8.35;;;;;;;19.43;63.55;102241.47;5031330;28;20510;-84
2022/06/11 09:50:04;;;;;;;35.67;8.48;;;;;;;19.56;64.82;102255.69;5015659;28;20044;-80
2022/06/11 09:52:50;;;;;;;31.33;7.85;;;;;;;19.64;64.67;102244.31;5030315;28;20021;-80
2022/06/11 09:55:18;;;;;;;39.20;9.00;;;;;;;19.77;66.36;102245.28;5026961;28;20029;-76
2022/06/11 09:58:22;;;;;;;39.30;8.97;;;;;;;19.88;65.06;102242.75;5012209;28;20496;-77
2022/06/11 10:00:57;;;;;;;33.92;8.65;;;;;;;20.00;66.23;102238.41;5032636;28;20037;-78
2022/06/11 10:03:39;;;;;;;38.28;8.40;;;;;;;20.05;63.85;102240.22;5010012;28;20104;-77
2022/06/11 10:06:07;;;;;;;37.50;8.60;;;;;;;20.16;65.10;102232.38;5028720;28;20167;-82
2022/06/11 10:09:05;;;;;;;36.72;8.02;;;;;;;20.29;66.31;102234.22;5012887;28;20029;-79
2022/06/11 10:11:35;;;;;;;32.25;6.70;;;;;;;20.36;60.22;102239.53;5029320;28;20083;-79
2022/06/11 10:14:30;;;;;;;25.73;5.88;;;;;;;20.37;60.90;102236.00;5026993;28;20050;-80
2022/06/11 10:17:23;;;;;;;25.15;5.78;;;;;;;20.39;61.59;102235.16;5009663;28;20099;-80
2022/06/11 10:20:04;;;;;;;25.27;5.43;;;;;;;20.41;60.05;102245.75;5019723;28;20037;-81
2022/06/11 10:22:44;;;;;;;27.17;5.53;;;;;;;20.38;57.83;102243.06;5012362;28;20029;-77
2022/06/11 10:25:19;;;;;;;26.27;5.53;;;;;;;20.43;59.75;102244.84;5004982;28;20032;-79
2022/06/11 10:28:02;;;;;;;23.45;5.68;;;;;;;20.52;60.89;102249.31;5028953;28;20030;-80
2022/06/11 10:30:34;;;;;;;26.15;5.45;;;;;;;20.57;57.22;102239.63;5008514;28;20120;-78
2022/06/11 10:33:03;;;;;;;23.85;5.50;;;;;;;20.62;57.47;102244.94;5021540;28;20017;-79
2022/06/11 10:35:37;;;;;;;25.48;5.75;;;;;;;20.66;57.43;102238.78;5010724;28;20056;-82
2022/06/11 10:38:12;;;;;;;24.60;5.28;;;;;;;20.72;57.42;102243.25;5021117;28;20492;-81
2022/06/11 10:40:42;;;;;;;20.60;5.78;;;;;;;20.80;58.81;102249.47;5012907;28;20034;-80
2022/06/11 10:43:13;;;;;;;22.02;5.82;;;;;;;20.80;55.72;102242.41;5019226;28;20037;-78
2022/06/11 10:45:38;;;;;;;26.38;5.53;;;;;;;20.84;56.24;102243.28;5018497;28;20570;-79
2022/06/11 10:48:13;;;;;;;27.33;5.68;;;;;;;20.90;57.29;102235.38;5019639;28;20134;-81
2022/06/11 10:50:38;;;;;;;20.83;5.70;;;;;;;20.96;56.22;102239.81;5007294;28;20168;-78
2022/06/11 10:53:17;;;;;;;38.95;15.90;;;;;;;21.05;58.06;102244.25;5016078;28;20120;-77
2022/06/11 10:55:52;;;;;;;32.13;7.28;;;;;;;21.09;58.26;102249.56;5013202;28;20033;-76
2022/06/11 10:58:28;;;;;;;23.65;7.47;;;;;;;21.12;57.69;102244.25;5010253;28;20067;-78
2022/06/11 11:00:59;;;;;;;28.35;7.00;;;;;;;21.14;57.54;102241.59;5011184;28;20030;-78
2022/06/11 11:03:34;;;;;;;30.90;7.55;;;;;;;21.20;59.13;102244.25;5009309;28;20037;-77
2022/06/11 11:06:16;;;;;;;31.77;8.40;;;;;;;21.26;58.34;102244.28;5017647;28;20090;-78
2022/06/11 11:08:52;;;;;;;29.77;8.10;;;;;;;21.41;60.55;102255.81;5014765;28;20117;-76
2022/06/11 11:11:17;;;;;;;32.45;7.72;;;;;;;21.40;55.82;102240.75;5010002;28;20053;-76
2022/06/11 11:13:45;;;;;;;31.40;8.30;;;;;;;21.40;56.86;102232.81;5011339;28;20529;-74
2022/06/11 11:16:13;;;;;;;31.90;7.72;;;;;;;21.46;59.24;102238.09;5015889;28;20034;-76
2022/06/11 11:19:03;;;;;;;118.50;51.05;;;;;;;21.48;57.15;102226.63;5013728;28;20037;-77
2022/06/11 11:21:48;;;;;;;55.15;22.92;;;;;;;21.56;59.14;102231.94;5003097;28;20033;-77
2022/06/11 11:24:18;;;;;;;34.90;8.57;;;;;;;21.61;59.65;102232.84;5007670;28;20033;-76
2022/06/11 11:26:58;;;;;;;23.33;9.02;;;;;;;21.64;59.08;102227.53;5009648;28;20100;-75
2022/06/11 11:29:26;;;;;;;35.67;10.25;;;;;;;21.73;56.72;102233.75;5014243;28;20420;-77
2022/06/11 11:31:58;;;;;;;33.95;10.55;;;;;;;21.74;56.80;102225.78;5009404;28;20064;-78